Time;durP1;ratioP1;P1;durP2;ratioP2;P2;SDS_P1;SDS_P2;PMS_P1;PMS_P2;Temp;Humidity;BMP_temperature;BMP_pressure;BME280_temperature;BME280_humidity;BME280_pressure;Samples;Min_cycle;Max_cycle;Signal;HPM_P1;HPM_P2
2021/04/02 00:02:24;;;;;;;6.55;2.35;;;7.40;62.10;;;;;;5133430;27;20050;-73
2021/04/02 00:04:50;;;;;;;6.93;2.42;;;7.40;62.30;;;;;;5132061;27;20039;-73
2021/04/02 00:07:18;;;;;;;8.45;2.92;;;7.40;63.20;;;;;;5114768;27;20487;-72
2021/04/02 00:09:44;;;;;;;8.40;2.92;;;7.40;62.40;;;;;;5114657;27;20057;-73
2021/04/02 00:12:10;;;;;;;7.53;2.60;;;7.30;62.50;;;;;;5097998;27;20042;-73
2021/04/02 00:14:36;;;;;;;5.38;2.55;;;7.30;62.60;;;;;;5097304;27;20087;-73
2021/04/02 00:17:02;;;;;;;8.88;3.28;;;7.30;62.70;;;;;;5112574;27;20114;-72
2021/04/02 00:19:28;;;;;;;6.60;3.38;;;7.30;62.70;;;;;;5112463;27;20047;-71
2021/04/02 00:21:53;;;;;;;6.47;2.72;;;7.20;62.70;;;;;;5105649;27;20057;-71
2021/04/02 00:24:19;;;;;;;6.53;2.63;;;7.20;62.80;;;;;;5123889;27;20035;-73
2021/04/02 00:26:45;;;;;;;6.03;2.40;;;7.20;62.80;;;;;;5130516;27;20088;-72
2021/04/02 00:29:11;;;;;;;4.75;2.67;;;7.20;62.80;;;;;;5126137;27;20047;-72
2021/04/02 00:31:37;;;;;;;6.22;3.58;;;7.10;62.80;;;;;;5101671;27;20088;-73
2021/04/02 00:34:04;;;;;;;6.63;2.58;;;7.10;63.00;;;;;;5128401;27;20114;-72
2021/04/02 00:36:30;;;;;;;6.18;2.28;;;7.10;63.70;;;;;;5106122;27;20077;-72
2021/04/02 00:38:56;;;;;;;7.10;2.65;;;7.10;63.10;;;;;;5120419;27;20375;-72
2021/04/02 00:41:22;;;;;;;6.28;2.38;;;7.00;63.10;;;;;;5111699;27;20488;-72
2021/04/02 00:43:52;;;;;;;7.55;2.22;;;7.10;63.10;;;;;;5123251;27;20059;-73
2021/04/02 00:46:21;;;;;;;6.50;2.10;;;7.10;63.20;;;;;;5093587;27;20042;-71
2021/04/02 00:48:47;;;;;;;7.38;2.40;;;7.00;63.20;;;;;;5102206;27;20042;-71
2021/04/02 00:51:25;;;;;;;6.07;2.38;;;7.00;63.20;;;;;;5108167;27;20147;-70
2021/04/02 00:53:50;;;;;;;8.80;2.45;;;7.00;63.50;;;;;;5118999;27;20520;-72
2021/04/02 00:56:16;;;;;;;5.55;2.30;;;6.90;63.40;;;;;;5107845;27;20475;-73
2021/04/02 00:58:42;;;;;;;5.90;3.03;;;6.90;63.40;;;;;;5112320;27;20114;-73
2021/04/02 01:01:08;;;;;;;6.22;2.30;;;6.90;63.40;;;;;;5104243;27;20437;-72
2021/04/02 01:03:35;;;;;;;5.57;2.00;;;6.90;63.60;;;;;;5088295;27;20102;-73
2021/04/02 01:06:03;;;;;;;8.07;2.50;;;6.90;63.50;;;;;;5123881;27;20047;-73
2021/04/02 01:08:31;;;;;;;7.03;2.30;;;6.90;63.50;;;;;;5094873;27;20048;-72
2021/04/02 01:10:58;;;;;;;6.82;2.47;;;6.90;63.60;;;;;;5124035;27;20073;-72
2021/04/02 01:13:40;;;;;;;8.30;2.00;;;6.90;63.70;;;;;;5130611;27;20054;-72
2021/04/02 01:16:22;;;;;;;6.75;2.70;;;6.80;63.70;;;;;;5103752;28;20437;-72
2021/04/02 01:19:06;;;;;;;6.30;2.00;;;6.80;63.90;;;;;;5111938;27;20067;-72
2021/04/02 01:21:35;;;;;;;5.70;1.95;;;6.80;64.10;;;;;;5096553;28;20194;-72
2021/04/02 01:24:20;;;;;;;4.75;2.03;;;6.80;63.90;;;;;;5104435;27;20513;-73
2021/04/02 01:26:49;;;;;;;4.32;2.10;;;6.70;63.90;;;;;;5131613;27;20039;-72
2021/04/02 01:29:17;;;;;;;3.67;2.08;;;6.70;64.00;;;;;;5108018;27;20110;-72
2021/04/02 01:31:47;;;;;;;5.90;2.25;;;6.70;64.10;;;;;;5115886;27;20083;-73
2021/04/02 01:34:13;;;;;;;5.22;2.10;;;6.70;64.20;;;;;;5114482;27;20039;-73
2021/04/02 01:36:40;;;;;;;4.75;1.90;;;6.70;64.20;;;;;;5099728;27;20049;-73
2021/04/02 01:39:07;;;;;;;7.07;2.08;;;6.70;64.30;;;;;;5133229;27;20868;-72
2021/04/02 01:41:33;;;;;;;6.65;2.25;;;6.70;64.30;;;;;;5114806;28;20047;-71
2021/04/02 01:43:59;;;;;;;6.32;2.50;;;6.60;64.30;;;;;;5114313;27;20479;-72
2021/04/02 01:46:25;;;;;;;6.20;2.20;;;6.60;64.50;;;;;;5097919;27;20045;-72
2021/04/02 01:48:52;;;;;;;6.35;2.40;;;6.60;64.50;;;;;;5081983;28;20050;-73
2021/04/02 01:51:18;;;;;;;7.03;2.20;;;6.60;64.60;;;;;;5115437;27;20039;-72
2021/04/02 01:53:46;;;;;;;6.00;2.60;;;6.60;64.70;;;;;;5099267;27;20047;-74
2021/04/02 01:56:12;;;;;;;3.60;2.10;;;6.60;64.80;;;;;;5095553;28;20730;-73
2021/04/02 01:58:40;;;;;;;5.47;2.00;;;6.60;64.80;;;;;;5107873;28;20146;-73
2021/04/02 02:01:05;;;;;;;5.95;2.00;;;6.60;64.90;;;;;;5115509;28;20601;-73
2021/04/02 02:03:31;;;;;;;8.13;2.67;;;6.50;64.90;;;;;;5134132;28;20137;-73
2021/04/02 02:05:57;;;;;;;11.50;3.20;;;6.50;65.00;;;;;;5114924;28;20067;-73
2021/04/02 02:08:23;;;;;;;5.88;2.30;;;6.50;65.10;;;;;;5133017;28;20130;-73
2021/04/02 02:10:54;;;;;;;7.10;2.60;;;6.50;65.20;;;;;;5115235;28;20039;-74
2021/04/02 02:13:20;;;;;;;4.93;2.20;;;6.50;65.30;;;;;;5133947;28;20063;-73
2021/04/02 02:15:46;;;;;;;6.57;2.40;;;6.50;65.40;;;;;;5098448;28;20046;-73
2021/04/02 02:18:13;;;;;;;10.13;2.65;;;6.50;65.50;;;;;;5098557;28;20047;-73
2021/04/02 02:20:40;;;;;;;6.47;2.15;;;6.50;65.50;;;;;;5113241;28;20047;-72
2021/04/02 02:23:07;;;;;;;6.28;2.97;;;6.40;65.60;;;;;;5098313;28;20134;-73
2021/04/02 02:25:33;;;;;;;10.90;2.58;;;6.40;65.60;;;;;;5131952;28;20051;-73
2021/04/02 02:27:59;;;;;;;7.38;2.40;;;6.40;65.80;;;;;;5133929;28;20390;-73
2021/04/02 02:30:29;;;;;;;7.78;2.40;;;6.40;65.90;;;;;;5098073;28;20035;-73
2021/04/02 02:32:54;;;;;;;5.30;2.58;;;6.40;66.00;;;;;;5083460;28;20135;-72
2021/04/02 02:35:21;;;;;;;4.75;2.72;;;6.40;65.90;;;;;;5117928;27;20075;-72
2021/04/02 02:37:47;;;;;;;5.53;2.78;;;6.40;66.00;;;;;;5112877;27;20043;-72
2021/04/02 02:40:21;;;;;;;7.80;2.92;;;6.40;66.10;;;;;;5102300;27;20085;-73
2021/04/02 02:42:47;;;;;;;6.38;2.72;;;6.40;66.10;;;;;;5133488;27;20403;-72
2021/04/02 02:45:13;;;;;;;7.38;3.05;;;6.40;66.20;;;;;;5137729;27;20055;-72
2021/04/02 02:47:40;;;;;;;8.63;3.33;;;6.40;66.20;;;;;;5137089;27;20076;-72
2021/04/02 02:50:11;;;;;;;5.25;2.78;;;6.40;66.30;;;;;;5137117;27;20047;-72
2021/04/02 02:52:37;;;;;;;4.32;2.63;;;6.40;66.40;;;;;;5102678;27;20042;-72
2021/04/02 02:55:03;;;;;;;11.07;2.85;;;6.40;66.50;;;;;;5102053;27;20050;-73
2021/04/02 02:57:29;;;;;;;8.18;2.45;;;6.40;66.50;;;;;;5119562;27;20039;-72
2021/04/02 02:59:59;;;;;;;9.85;2.70;;;6.50;66.60;;;;;;5098319;28;20055;-73
2021/04/02 03:02:26;;;;;;;5.80;2.67;;;6.40;66.60;;;;;;5086234;27;20082;-72
2021/04/02 03:04:52;;;;;;;8.50;3.40;;;6.40;66.60;;;;;;5136764;27;20462;-72
2021/04/02 03:07:18;;;;;;;5.82;2.88;;;6.40;66.60;;;;;;5081852;28;20137;-72
2021/04/02 03:09:44;;;;;;;7.70;3.40;;;6.40;66.70;;;;;;5091412;27;20074;-72
2021/04/02 03:12:09;;;;;;;5.25;2.65;;;6.40;66.80;;;;;;5100073;27;20079;-73
2021/04/02 03:14:35;;;;;;;7.53;2.70;;;6.40;66.80;;;;;;5100986;27;20051;-72
2021/04/02 03:17:02;;;;;;;6.32;2.90;;;6.40;66.80;;;;;;5084733;27;20054;-73
2021/04/02 03:19:28;;;;;;;6.70;3.00;;;6.40;66.80;;;;;;5137790;27;20043;-72
2021/04/02 03:21:54;;;;;;;6.60;2.47;;;6.40;66.80;;;;;;5102496;27;20078;-72
2021/04/02 03:24:20;;;;;;;6.13;2.47;;;6.40;66.90;;;;;;5102067;27;20502;-72
2021/04/02 03:26:53;;;;;;;5.43;2.30;;;6.40;66.70;;;;;;5100034;27;20043;-72
2021/04/02 03:29:22;;;;;;;6.07;2.75;;;6.40;66.80;;;;;;5091878;28;20091;-72
2021/04/02 03:31:48;;;;;;;6.53;2.88;;;6.40;66.80;;;;;;5088950;27;20138;-72
2021/04/02 03:34:16;;;;;;;6.82;2.63;;;6.40;66.70;;;;;;5109413;27;20081;-73
2021/04/02 03:36:43;;;;;;;7.25;2.50;;;6.40;66.60;;;;;;5137011;27;20055;-73
2021/04/02 03:39:11;;;;;;;7.97;2.75;;;6.40;66.50;;;;;;5101312;27;20428;-73
2021/04/02 03:41:37;;;;;;;7.20;2.80;;;6.40;66.50;;;;;;5136978;27;20043;-73
2021/04/02 03:44:04;;;;;;;7.22;2.50;;;6.40;66.50;;;;;;5117132;27;20104;-72
2021/04/02 03:46:29;;;;;;;6.47;2.83;;;6.40;66.50;;;;;;5101085;27;20071;-72
2021/04/02 03:48:56;;;;;;;4.53;2.53;;;6.40;66.50;;;;;;5118005;27;20050;-71
2021/04/02 03:51:24;;;;;;;5.97;2.28;;;6.30;66.40;;;;;;5101646;27;20070;-72
2021/04/02 03:54:02;;;;;;;7.45;2.53;;;6.40;66.50;;;;;;5136353;27;20046;-73
2021/04/02 03:56:29;;;;;;;7.05;2.10;;;6.30;66.50;;;;;;5118275;27;20043;-72
2021/04/02 03:58:56;;;;;;;6.47;2.25;;;6.30;66.30;;;;;;5101014;27;20035;-72
2021/04/02 04:01:26;;;;;;;5.20;2.40;;;6.30;66.50;;;;;;5118078;27;20088;-73
2021/04/02 04:03:52;;;;;;;8.13;2.92;;;6.30;66.50;;;;;;5084002;27;20141;-73
2021/04/02 04:06:20;;;;;;;7.22;3.05;;;6.30;66.40;;;;;;5100775;27;20092;-72
2021/04/02 04:08:57;;;;;;;6.47;2.80;;;6.30;66.60;;;;;;5108237;28;20043;-72
2021/04/02 04:11:24;;;;;;;7.38;3.83;;;6.20;66.50;;;;;;5116433;27;20110;-73
2021/04/02 04:13:51;;;;;;;6.68;2.60;;;6.20;66.50;;;;;;5117873;27;20429;-71
2021/04/02 04:16:19;;;;;;;6.93;2.72;;;6.20;66.60;;;;;;5100455;27;20070;-72
2021/04/02 04:18:46;;;;;;;5.68;3.10;;;6.20;66.60;;;;;;5118290;27;20054;-72
2021/04/02 04:21:12;;;;;;;7.72;3.13;;;6.20;66.60;;;;;;5117376;27;20139;-73
2021/04/02 04:23:38;;;;;;;7.75;2.90;;;6.20;66.80;;;;;;5100814;27;20169;-72
2021/04/02 04:26:04;;;;;;;9.63;2.72;;;6.20;66.70;;;;;;5117931;27;20126;-73
2021/04/02 04:28:29;;;;;;;8.70;2.25;;;6.20;66.90;;;;;;5101015;27;20050;-71
2021/04/02 04:30:58;;;;;;;6.85;2.63;;;6.20;66.80;;;;;;5117733;27;20051;-73
2021/04/02 04:33:25;;;;;;;9.85;3.55;;;6.10;66.80;;;;;;5101311;27;20515;-73
2021/04/02 04:35:50;;;;;;;8.30;2.72;;;6.10;66.70;;;;;;5118262;27;20039;-72
2021/04/02 04:38:16;;;;;;;10.45;3.13;;;6.10;66.60;;;;;;5116684;27;20100;-72
2021/04/02 04:40:42;;;;;;;9.48;3.10;;;6.10;66.80;;;;;;5136863;27;20094;-72
2021/04/02 04:43:10;;;;;;;5.65;2.55;;;6.10;66.90;;;;;;5101138;27;20043;-74
2021/04/02 04:45:36;;;;;;;4.78;2.13;;;6.10;67.00;;;;;;5136547;27;20071;-72
2021/04/02 04:48:02;;;;;;;9.63;2.13;;;6.10;66.90;;;;;;5101319;27;20219;-72
2021/04/02 04:50:28;;;;;;;8.20;3.00;;;6.10;67.00;;;;;;5117863;27;20043;-72
2021/04/02 04:53:33;;;;;;;6.40;2.83;;;6.10;67.00;;;;;;5097676;27;20085;-71
2021/04/02 04:56:01;;;;;;;6.55;2.50;;;6.00;67.10;;;;;;5053667;28;20049;-72
2021/04/02 04:58:29;;;;;;;11.25;2.60;;;6.00;66.80;;;;;;5003366;28;20128;-73
2021/04/02 05:00:55;;;;;;;8.00;2.47;;;6.00;66.70;;;;;;5078134;27;20486;-72
2021/04/02 05:03:21;;;;;;;5.65;2.55;;;6.00;66.90;;;;;;5117005;27;20043;-72
2021/04/02 05:05:48;;;;;;;6.15;2.70;;;6.00;66.90;;;;;;5101318;27;20130;-71
2021/04/02 05:08:17;;;;;;;6.40;2.70;;;6.00;66.90;;;;;;5116410;27;20049;-73
2021/04/02 05:10:44;;;;;;;7.85;2.67;;;6.00;66.90;;;;;;5101490;27;20047;-73
2021/04/02 05:13:09;;;;;;;6.82;2.90;;;6.00;67.00;;;;;;5117907;27;20171;-73
2021/04/02 05:15:35;;;;;;;6.00;2.40;;;6.00;67.00;;;;;;5117645;27;20046;-72
2021/04/02 05:18:01;;;;;;;6.95;2.83;;;6.00;67.10;;;;;;5119740;27;20043;-71
2021/04/02 05:20:47;;;;;;;5.82;2.72;;;6.00;67.20;;;;;;5138772;27;20088;-71
2021/04/02 05:23:14;;;;;;;6.85;2.33;;;6.00;67.60;;;;;;5119526;27;20059;-73
2021/04/02 05:25:40;;;;;;;7.95;2.70;;;6.10;67.40;;;;;;5139044;27;20049;-72
2021/04/02 05:28:06;;;;;;;7.18;2.40;;;6.10;67.40;;;;;;5139894;27;20043;-72
2021/04/02 05:30:32;;;;;;;9.13;2.72;;;6.10;67.50;;;;;;5103979;27;20027;-72
2021/04/02 05:32:59;;;;;;;7.97;3.08;;;6.10;67.50;;;;;;5117880;28;20456;-71
2021/04/02 05:35:25;;;;;;;7.82;3.00;;;6.10;67.50;;;;;;5118840;28;20119;-72
2021/04/02 05:37:50;;;;;;;6.13;2.70;;;6.20;67.70;;;;;;5118605;28;20119;-73
2021/04/02 05:40:16;;;;;;;10.90;3.33;;;6.20;67.60;;;;;;5113358;28;20047;-73
2021/04/02 05:42:48;;;;;;;8.80;2.67;;;6.20;67.50;;;;;;5112961;28;20055;-71
2021/04/02 05:45:14;;;;;;;7.40;2.53;;;6.20;67.50;;;;;;5114232;28;20039;-72
2021/04/02 05:47:40;;;;;;;8.20;2.40;;;6.20;67.50;;;;;;5113805;27;20050;-70
2021/04/02 05:50:06;;;;;;;5.80;2.88;;;6.20;67.60;;;;;;5096047;28;20484;-71
2021/04/02 05:52:32;;;;;;;8.95;2.53;;;6.20;67.70;;;;;;5112167;28;20601;-72
2021/04/02 05:54:58;;;;;;;5.00;2.45;;;6.30;67.60;;;;;;5079667;28;20048;-73
2021/04/02 05:57:24;;;;;;;9.20;3.08;;;6.30;67.70;;;;;;5077003;28;20174;-72
2021/04/02 05:59:50;;;;;;;5.70;2.60;;;6.30;67.60;;;;;;5097051;28;20047;-72
2021/04/02 06:02:16;;;;;;;5.45;2.13;;;6.30;67.60;;;;;;5096781;28;20123;-74
2021/04/02 06:04:42;;;;;;;6.05;2.35;;;6.40;67.50;;;;;;5114753;28;20638;-73
2021/04/02 06:07:07;;;;;;;6.53;2.92;;;6.50;67.70;;;;;;5113846;28;20089;-71
2021/04/02 06:09:33;;;;;;;7.57;2.55;;;6.40;67.50;;;;;;5115260;28;20062;-71
2021/04/02 06:11:59;;;;;;;7.75;2.53;;;6.50;67.70;;;;;;5100230;28;20043;-71
2021/04/02 06:14:24;;;;;;;8.15;2.72;;;6.50;67.70;;;;;;5117723;28;20166;-72
2021/04/02 06:16:51;;;;;;;9.00;2.90;;;6.50;67.60;;;;;;5117251;28;20399;-71
2021/04/02 06:19:17;;;;;;;6.75;2.58;;;6.60;67.50;;;;;;5117607;28;20104;-72
2021/04/02 06:21:52;;;;;;;10.38;2.70;;;6.60;67.50;;;;;;5100041;28;20043;-72
2021/04/02 06:24:35;;;;;;;7.88;2.88;;;6.60;67.40;;;;;;5117226;28;20119;-73
2021/04/02 06:27:01;;;;;;;5.78;1.92;;;6.70;67.50;;;;;;5099065;28;20457;-71
2021/04/02 06:29:28;;;;;;;9.52;2.58;;;6.70;67.30;;;;;;5099004;28;20047;-72
2021/04/02 06:31:54;;;;;;;5.55;2.13;;;6.70;67.20;;;;;;5116159;28;20056;-71
2021/04/02 06:34:21;;;;;;;8.90;2.50;;;6.80;67.30;;;;;;5116134;28;20049;-73
2021/04/02 06:36:49;;;;;;;6.63;2.00;;;6.90;67.20;;;;;;5117490;28;20460;-71
2021/04/02 06:39:15;;;;;;;6.35;2.13;;;6.90;67.20;;;;;;5116182;28;20048;-71
2021/04/02 06:41:41;;;;;;;8.02;2.60;;;6.90;67.10;;;;;;5115675;28;20055;-71
2021/04/02 06:44:08;;;;;;;6.32;2.10;;;7.10;67.80;;;;;;5116196;28;20059;-71
2021/04/02 06:46:38;;;;;;;6.40;2.10;;;7.00;66.90;;;;;;5116159;28;20039;-71
2021/04/02 06:49:09;;;;;;;8.18;2.28;;;7.00;66.60;;;;;;5116500;28;20071;-72
2021/04/02 06:51:38;;;;;;;7.75;2.10;;;7.10;66.70;;;;;;5082596;28;20047;-72
2021/04/02 06:54:05;;;;;;;6.07;2.05;;;7.10;66.70;;;;;;5083390;28;20047;-73
2021/04/02 06:56:31;;;;;;;10.15;3.70;;;7.20;66.70;;;;;;5115832;28;20110;-73
2021/04/02 06:58:58;;;;;;;11.77;2.75;;;7.20;66.60;;;;;;5112700;28;20047;-71
2021/04/02 07:01:24;;;;;;;7.47;2.38;;;7.20;66.40;;;;;;5099987;28;20043;-73
2021/04/02 07:03:49;;;;;;;9.65;2.08;;;7.30;66.40;;;;;;5116428;28;20109;-72
2021/04/02 07:06:15;;;;;;;6.15;2.03;;;7.40;66.30;;;;;;5120247;28;20399;-73
2021/04/02 07:08:41;;;;;;;6.07;2.20;;;7.40;66.20;;;;;;5095508;28;20043;-72
2021/04/02 07:11:07;;;;;;;6.50;1.92;;;7.50;66.20;;;;;;5114487;28;20078;-72
2021/04/02 07:13:35;;;;;;;8.32;2.33;;;7.60;65.70;;;;;;5095531;28;20491;-72
2021/04/02 07:16:01;;;;;;;8.45;1.92;;;7.50;65.10;;;;;;5114401;28;20047;-72
2021/04/02 07:18:27;;;;;;;5.50;2.00;;;7.50;65.20;;;;;;5112524;28;20071;-73
2021/04/02 07:20:53;;;;;;;7.90;2.45;;;7.60;65.20;;;;;;5111710;28;20055;-72
2021/04/02 07:23:19;;;;;;;6.55;2.35;;;7.60;65.10;;;;;;5114149;28;20075;-72
2021/04/02 07:25:45;;;;;;;8.02;1.80;;;7.70;65.00;;;;;;5109954;28;20104;-72
2021/04/02 07:28:11;;;;;;;14.30;2.45;;;7.70;64.90;;;;;;5114157;28;20043;-72
2021/04/02 07:30:37;;;;;;;10.52;2.15;;;7.80;64.70;;;;;;5090498;28;20043;-73
2021/04/02 07:33:07;;;;;;;9.23;3.15;;;7.80;64.60;;;;;;5106638;28;20139;-73
2021/04/02 07:35:36;;;;;;;7.63;2.60;;;7.90;64.40;;;;;;5073617;28;20510;-74
2021/04/02 07:38:02;;;;;;;9.38;2.95;;;7.90;64.30;;;;;;5093232;28;20125;-72
2021/04/02 07:40:33;;;;;;;8.45;2.22;;;8.00;64.20;;;;;;5105089;28;20036;-73
2021/04/02 07:43:01;;;;;;;8.25;2.08;;;8.00;64.00;;;;;;5092084;28;20100;-72
2021/04/02 07:45:30;;;;;;;9.00;2.40;;;8.10;63.90;;;;;;5105036;28;20051;-72
2021/04/02 07:48:09;;;;;;;8.98;2.45;;;8.10;63.80;;;;;;5100579;28;20039;-73
2021/04/02 07:50:37;;;;;;;8.07;2.03;;;8.20;63.70;;;;;;5101020;28;20043;-74
2021/04/02 07:53:02;;;;;;;6.80;2.60;;;8.30;63.50;;;;;;5103080;28;20047;-72
2021/04/02 07:55:28;;;;;;;7.20;2.90;;;8.30;63.30;;;;;;5104051;28;20493;-72
2021/04/02 07:58:00;;;;;;;6.22;2.63;;;8.30;63.10;;;;;;5101017;28;20039;-72
2021/04/02 08:00:34;;;;;;;8.85;2.47;;;8.40;62.90;;;;;;5105781;28;20110;-72
2021/04/02 08:03:10;;;;;;;6.93;2.30;;;8.40;62.70;;;;;;5101444;28;20040;-72
2021/04/02 08:05:37;;;;;;;9.48;2.20;;;8.50;62.60;;;;;;5111383;28;20120;-72
2021/04/02 08:08:07;;;;;;;7.20;2.42;;;8.50;62.30;;;;;;5113382;27;20090;-71
2021/04/02 08:10:32;;;;;;;7.75;2.20;;;8.50;62.10;;;;;;5103646;28;20039;-72
2021/04/02 08:12:58;;;;;;;8.70;2.25;;;8.60;61.90;;;;;;5087213;28;20104;-72
2021/04/02 08:15:24;;;;;;;8.70;2.60;;;8.60;61.60;;;;;;5055051;28;20048;-73
2021/04/02 08:17:50;;;;;;;8.63;3.10;;;8.60;61.60;;;;;;5108624;28;20123;-72
2021/04/02 08:20:17;;;;;;;8.13;2.97;;;8.60;61.40;;;;;;5108499;28;20118;-71
2021/04/02 08:22:44;;;;;;;8.32;2.90;;;8.60;61.30;;;;;;5108271;28;20055;-73
2021/04/02 08:25:11;;;;;;;9.68;3.00;;;8.60;61.20;;;;;;5108829;28;20040;-73
2021/04/02 08:27:37;;;;;;;8.18;2.58;;;8.50;61.20;;;;;;5112689;28;20040;-74
2021/04/02 08:30:05;;;;;;;7.45;3.30;;;8.60;61.30;;;;;;5109460;28;20488;-71
2021/04/02 08:32:38;;;;;;;6.40;2.53;;;8.60;61.20;;;;;;5120809;27;20058;-71
2021/04/02 08:35:08;;;;;;;8.25;2.42;;;8.60;61.00;;;;;;5114359;27;20035;-71
2021/04/02 08:37:35;;;;;;;8.57;3.30;;;8.60;60.90;;;;;;5133577;27;20126;-72
2021/04/02 08:40:05;;;;;;;8.98;3.17;;;8.70;60.90;;;;;;5113360;27;20137;-72
2021/04/02 08:42:31;;;;;;;8.02;2.80;;;8.60;60.50;;;;;;5116428;27;20047;-71
2021/04/02 08:44:57;;;;;;;9.75;2.47;;;8.70;60.60;;;;;;5130416;27;20221;-71
2021/04/02 08:47:22;;;;;;;13.70;3.28;;;8.80;61.30;;;;;;5122630;27;20548;-74
2021/04/02 08:49:52;;;;;;;9.40;2.83;;;8.90;62.70;;;;;;5111631;27;20066;-69
2021/04/02 08:52:28;;;;;;;8.23;2.65;;;9.20;62.70;;;;;;5076576;28;20085;-70
2021/04/02 08:54:58;;;;;;;5.15;2.00;;;9.60;65.80;;;;;;5097950;27;20043;-71
2021/04/02 08:57:24;;;;;;;10.32;4.05;;;10.20;63.70;;;;;;5090613;27;20043;-73
2021/04/02 08:59:50;;;;;;;9.15;2.55;;;10.80;63.70;;;;;;5075733;28;20044;-71
2021/04/02 09:02:16;;;;;;;5.78;2.63;;;11.00;61.40;;;;;;5100069;27;20510;-71
2021/04/02 09:04:43;;;;;;;8.52;2.53;;;10.90;59.00;;;;;;5112656;27;20072;-75
2021/04/02 09:07:09;;;;;;;7.20;2.03;;;10.70;58.60;;;;;;5095834;27;20051;-73
2021/04/02 09:09:34;;;;;;;9.32;2.20;;;10.50;57.90;;;;;;5078163;27;20122;-70
2021/04/02 09:12:05;;;;;;;6.05;2.13;;;10.40;57.70;;;;;;5130340;27;20110;-76
2021/04/02 09:14:31;;;;;;;10.73;2.90;;;10.30;57.50;;;;;;5110068;27;20039;-71
2021/04/02 09:16:57;;;;;;;7.35;2.13;;;10.40;58.80;;;;;;5092322;28;20100;-73
2021/04/02 09:19:23;;;;;;;4.70;1.90;;;10.60;60.20;;;;;;5073367;27;20039;-72
2021/04/02 09:21:51;;;;;;;5.88;2.08;;;10.80;61.90;;;;;;5128421;27;20143;-71
2021/04/02 09:24:16;;;;;;;4.65;1.75;;;11.50;62.50;;;;;;5121324;27;20039;-71
2021/04/02 09:26:42;;;;;;;6.57;2.25;;;12.20;61.20;;;;;;5109025;27;20543;-75
2021/04/02 09:29:11;;;;;;;9.93;2.42;;;12.40;59.80;;;;;;5126632;27;20352;-75
2021/04/02 09:31:38;;;;;;;6.43;2.15;;;12.50;57.40;;;;;;5086530;27;20084;-73
2021/04/02 09:34:05;;;;;;;8.15;2.67;;;12.40;56.30;;;;;;5125633;27;20082;-75
2021/04/02 09:36:33;;;;;;;10.70;2.40;;;12.20;55.80;;;;;;5067993;28;20044;-73
2021/04/02 09:39:22;;;;;;;9.48;2.83;;;12.10;55.50;;;;;;5077256;27;20050;-75
2021/04/02 09:41:51;;;;;;;11.18;2.45;;;11.90;54.60;;;;;;5107416;27;20042;-82
2021/04/02 09:44:17;;;;;;;6.32;2.22;;;11.80;55.00;;;;;;5103746;27;20040;-73
2021/04/02 09:46:45;;;;;;;8.90;2.42;;;11.70;54.80;;;;;;5111331;27;20086;-72
2021/04/02 09:49:18;;;;;;;7.28;2.42;;;11.60;54.70;;;;;;5101099;27;20040;-74
2021/04/02 09:51:45;;;;;;;6.95;2.35;;;11.50;56.10;;;;;;5095948;28;20039;-73
2021/04/02 09:54:12;;;;;;;9.15;2.65;;;11.60;55.90;;;;;;5110521;28;20039;-73
2021/04/02 09:56:38;;;;;;;9.43;2.47;;;11.50;55.00;;;;;;5079073;27;20039;-74
2021/04/02 09:59:04;;;;;;;7.22;2.63;;;11.50;55.50;;;;;;5074489;28;20495;-71
2021/04/02 10:01:34;;;;;;;9.93;2.75;;;11.60;55.20;;;;;;5108466;27;20518;-74
2021/04/02 10:04:00;;;;;;;7.65;2.80;;;11.50;55.50;;;;;;5092276;28;20394;-73
2021/04/02 10:06:25;;;;;;;6.90;2.47;;;11.50;54.60;;;;;;5109449;28;20039;-73
2021/04/02 10:08:51;;;;;;;7.43;2.90;;;11.50;54.40;;;;;;5111617;28;20035;-74
2021/04/02 10:11:17;;;;;;;7.47;2.70;;;11.40;54.40;;;;;;5129253;28;20046;-72
2021/04/02 10:13:43;;;;;;;7.05;2.33;;;11.50;55.50;;;;;;5093496;28;20111;-73
2021/04/02 10:16:09;;;;;;;7.63;2.50;;;11.40;54.50;;;;;;5095444;28;20047;-73
2021/04/02 10:18:35;;;;;;;8.43;3.33;;;11.20;54.20;;;;;;5113177;28;20057;-73
2021/04/02 10:21:02;;;;;;;8.05;2.65;;;11.20;54.00;;;;;;5112586;28;20110;-73
2021/04/02 10:23:28;;;;;;;5.60;2.45;;;11.10;54.10;;;;;;5132302;28;20082;-72
2021/04/02 10:25:54;;;;;;;10.55;2.30;;;11.00;54.20;;;;;;5113422;28;20067;-73
2021/04/02 10:28:20;;;;;;;7.97;2.90;;;11.00;54.30;;;;;;5113543;28;20054;-72
2021/04/02 10:30:48;;;;;;;9.23;2.70;;;11.00;54.30;;;;;;5113563;28;20044;-72
2021/04/02 10:33:14;;;;;;;6.78;2.63;;;11.00;54.40;;;;;;5131368;28;20088;-72
2021/04/02 10:35:39;;;;;;;6.65;2.13;;;11.10;54.30;;;;;;5097060;28;20077;-72
2021/04/02 10:38:05;;;;;;;6.97;2.45;;;11.10;54.30;;;;;;5131319;28;20039;-71
2021/04/02 10:40:33;;;;;;;9.05;2.63;;;11.10;54.40;;;;;;5096845;28;20048;-71
2021/04/02 10:42:59;;;;;;;10.15;3.28;;;11.10;54.40;;;;;;5131534;28;20145;-73
2021/04/02 10:45:25;;;;;;;8.35;2.70;;;11.10;54.40;;;;;;5132076;28;20082;-72
2021/04/02 10:47:51;;;;;;;11.55;2.70;;;11.10;54.40;;;;;;5113691;28;20039;-71
2021/04/02 10:50:16;;;;;;;8.00;2.58;;;11.00;54.40;;;;;;5112920;28;20414;-72
2021/04/02 10:52:42;;;;;;;12.75;3.78;;;11.00;54.50;;;;;;5113422;28;20074;-73
2021/04/02 10:55:08;;;;;;;6.78;2.30;;;11.00;54.60;;;;;;5132274;27;20043;-72
2021/04/02 10:57:34;;;;;;;8.10;2.42;;;11.00;54.70;;;;;;5117524;27;20092;-72
2021/04/02 11:00:00;;;;;;;6.25;1.98;;;10.90;54.80;;;;;;5117027;27;20039;-73
2021/04/02 11:02:26;;;;;;;7.82;2.22;;;11.00;55.00;;;;;;5117538;27;20119;-69
2021/04/02 11:04:52;;;;;;;9.00;2.53;;;10.90;54.90;;;;;;5135617;27;20115;-71
2021/04/02 11:07:17;;;;;;;8.20;2.08;;;10.90;55.00;;;;;;5134743;27;20043;-72
2021/04/02 11:09:43;;;;;;;8.60;2.47;;;10.90;55.20;;;;;;5135728;27;20161;-73
2021/04/02 11:12:09;;;;;;;7.85;2.30;;;10.90;55.30;;;;;;5101253;27;20040;-72
2021/04/02 11:14:35;;;;;;;9.10;2.53;;;10.90;55.30;;;;;;5140156;27;20035;-73
2021/04/02 11:17:00;;;;;;;9.60;2.28;;;11.00;55.30;;;;;;5138717;27;20043;-73
2021/04/02 11:19:26;;;;;;;8.25;2.67;;;10.90;55.20;;;;;;5135889;27;20467;-72
2021/04/02 11:21:52;;;;;;;7.15;1.83;;;10.90;55.20;;;;;;5100141;27;20039;-72
2021/04/02 11:24:17;;;;;;;5.13;1.92;;;10.80;54.90;;;;;;5136981;27;20043;-72
2021/04/02 11:26:43;;;;;;;9.52;2.28;;;10.80;55.10;;;;;;5107330;27;20051;-71
2021/04/02 11:29:09;;;;;;;6.32;2.13;;;10.80;55.20;;;;;;5104360;27;20103;-72
2021/04/02 11:31:35;;;;;;;7.35;1.85;;;10.80;55.20;;;;;;5121936;27;20376;-73
2021/04/02 11:34:00;;;;;;;8.95;2.53;;;10.70;55.30;;;;;;5124805;27;20055;-71
2021/04/02 11:36:26;;;;;;;7.00;2.03;;;10.70;55.30;;;;;;5142184;27;20154;-72
2021/04/02 11:38:52;;;;;;;7.18;2.08;;;10.70;55.10;;;;;;5135309;27;20433;-72
2021/04/02 11:41:18;;;;;;;9.35;2.47;;;10.60;55.20;;;;;;5116181;27;20043;-72
2021/04/02 11:43:44;;;;;;;6.40;1.98;;;10.70;55.20;;;;;;5116838;27;20403;-73
2021/04/02 11:46:09;;;;;;;9.52;2.25;;;10.70;55.00;;;;;;5134161;27;20403;-72
2021/04/02 11:48:35;;;;;;;7.47;2.13;;;10.60;55.00;;;;;;5116928;27;20039;-71
2021/04/02 11:51:01;;;;;;;6.90;2.25;;;10.60;55.10;;;;;;5115903;27;20042;-73
2021/04/02 11:53:27;;;;;;;7.38;2.30;;;10.60;55.20;;;;;;5134847;27;20094;-72
2021/04/02 11:55:52;;;;;;;7.63;2.80;;;10.50;55.20;;;;;;5134893;27;20085;-72
2021/04/02 11:58:18;;;;;;;10.80;2.55;;;10.50;55.30;;;;;;5115776;27;20047;-72
2021/04/02 12:00:44;;;;;;;9.10;2.65;;;10.40;55.50;;;;;;5134300;27;20074;-71
2021/04/02 12:03:10;;;;;;;6.68;2.17;;;10.40;55.70;;;;;;5133936;27;20539;-72
2021/04/02 12:05:36;;;;;;;5.78;2.33;;;10.30;55.80;;;;;;5115982;27;20054;-71
2021/04/02 12:08:01;;;;;;;5.93;2.85;;;10.30;55.90;;;;;;5115398;27;20046;-72
2021/04/02 12:10:27;;;;;;;8.00;2.50;;;10.30;56.10;;;;;;5116050;27;20039;-72
2021/04/02 12:12:53;;;;;;;6.97;2.83;;;10.30;56.30;;;;;;5116153;27;20070;-71
2021/04/02 12:15:19;;;;;;;7.53;2.03;;;10.30;56.30;;;;;;5115523;27;20100;-72
2021/04/02 12:17:45;;;;;;;6.90;2.60;;;10.20;56.20;;;;;;5134334;27;20046;-72
2021/04/02 12:20:12;;;;;;;5.95;1.60;;;10.30;56.30;;;;;;5133713;27;20031;-72
2021/04/02 12:22:38;;;;;;;8.10;2.00;;;10.30;56.30;;;;;;5099119;27;20108;-72
2021/04/02 12:25:06;;;;;;;7.28;1.98;;;10.30;56.30;;;;;;5098767;27;20046;-73
2021/04/02 12:27:32;;;;;;;7.40;2.30;;;10.30;56.20;;;;;;5098399;27;20054;-72
2021/04/02 12:29:58;;;;;;;7.32;1.92;;;10.30;56.10;;;;;;5134139;27;20060;-73
2021/04/02 12:32:23;;;;;;;8.18;2.60;;;10.30;56.20;;;;;;5133028;27;20055;-71
2021/04/02 12:34:49;;;;;;;8.07;2.70;;;10.40;56.20;;;;;;5134000;27;20043;-71
2021/04/02 12:37:15;;;;;;;7.50;1.98;;;10.40;56.20;;;;;;5115939;27;20540;-72
2021/04/02 12:39:41;;;;;;;9.80;2.25;;;10.40;56.20;;;;;;5121272;27;20099;-71
2021/04/02 12:42:08;;;;;;;6.65;2.22;;;10.30;56.20;;;;;;5139590;27;20543;-73
2021/04/02 12:44:35;;;;;;;7.43;2.30;;;10.40;56.30;;;;;;5121569;27;20166;-71
2021/04/02 12:47:04;;;;;;;7.50;2.42;;;10.40;56.20;;;;;;5105388;27;20122;-72
2021/04/02 12:49:30;;;;;;;7.72;1.95;;;10.40;56.10;;;;;;5138808;27;20039;-70
2021/04/02 12:51:56;;;;;;;6.97;2.30;;;10.50;56.10;;;;;;5139417;27;20042;-71
2021/04/02 12:54:22;;;;;;;6.38;1.83;;;10.50;56.10;;;;;;5139047;27;20407;-72